• Join FlightAware (Why Join?)
  • Login
  • US Flag 
01:52PM EDT


 

Airport Tracker/Info


-or-


 

Live Flight TrackerFlight Track Log ✈ ASQ6151 ✈ 03-Sep-2013 ✈ KGSO - KORD

Flight Track Log - Related Links

Times and Time Zones

All times are in EDT time to prevent confusion due to time zone crossing. See the ASQ6151 flight status page for this flight to view local times or setup timezone preferences in your user account.

Time Position Orientation Groundspeed Altitude Reporting Facility
EDT Latitude Longitude Course Direction KTS MPH feet Rate Location/Type
04:26PM 36.2385 -80.1885 321° Northwest  Level FlightAware Approximate
04:26PM 36.2492 -79.7803 302° West 255 293 8,000  Level Atlanta Center
04:27PM 36.2862 -80.2722 302° West  Level FlightAware Approximate
04:27PM 36.2744 -79.8408 297° West 250 288 10,100  Level Atlanta Center
04:28PM 36.3319 -80.3586 307° West  Level FlightAware Approximate
04:28PM 36.3000 -79.9244 291° West 249 287 11,600  Level Atlanta Center
04:29PM 36.3817 -80.4416 307° West  Level FlightAware Approximate
04:29PM 36.3283 -80.0211 290° West 274 315 12,000  Level Atlanta Center
04:30PM 36.4298 -80.5262 302° West  Level FlightAware Approximate
04:30PM 36.3631 -80.1328 291° West 313 360 12,000  Level Atlanta Center
04:31PM 36.4738 -80.6142 302° West  Level FlightAware Approximate
04:31PM 36.4128 -80.2542 297° West 351 404 13,300  Level Atlanta Center
04:32PM 36.4700 -80.3469 308° West 351 404 14,800 1,500 Climbing Atlanta Center
04:33PM 36.5250 -80.4478 304° West 351 404 16,300 1,440 Climbing Atlanta Center
04:34PM 36.5800 -80.5408 306° West 346 398 17,700 1,380 Climbing Atlanta Center
04:35PM 36.6367 -80.6342 307° West 341 392 19,100 1,260 Climbing Atlanta Center
04:36PM 36.6936 -80.7353 305° West 347 399 20,300 1,200 Climbing Atlanta Center
04:37PM 36.7506 -80.8339 306° West 352 405 21,500 1,140 Climbing Atlanta Center
04:38PM 36.8031 -80.9303 304° West 357 411 22,600 1,200 Climbing Atlanta Center
04:39PM 36.8686 -81.0472 305° West 364 419 24,000 1,260 Climbing Atlanta Center
04:40PM 36.9272 -81.1489 306° West 369 425 25,200 1,140 Climbing Atlanta Center
04:42PM 37.0250 -81.3103 307° West 368 423 27,100 1,200 Climbing Indianapolis Center
04:43PM 37.0933 -81.4314 305° West 368 423 28,500 1,260 Climbing Indianapolis Center
04:44PM 37.1503 -81.5342 305° West 361 415 29,700 1,140 Climbing Indianapolis Center
04:45PM 37.2094 -81.6369 306° West 363 418 30,900 1,140 Climbing Indianapolis Center
04:46PM 37.2664 -81.7397 305° West 360 414 32,100 1,020 Climbing Indianapolis Center
04:47PM 37.3244 -81.8436 305° West 362 417 33,000 840 Climbing Indianapolis Center
04:48PM 37.3836 -81.9494 305° West 368 423 33,900 480 Climbing Indianapolis Center
04:49PM 37.4536 -82.0772 305° West 378 435 34,000  Climbing Indianapolis Center
04:50PM 37.5183 -82.1933 305° West 399 459 34,000  Level Indianapolis Center
04:51PM 37.5811 -82.3083 305° West 399 459 34,000  Level Indianapolis Center
04:52PM 37.6433 -82.4208 305° West 393 452 34,000  Level Indianapolis Center
04:53PM 37.7031 -82.5297 305° West 382 440 34,000  Level Indianapolis Center
04:54PM 37.7739 -82.6597 305° West 385 443 34,000  Level Indianapolis Center
04:55PM 37.8344 -82.7722 304° West 388 447 34,000  Level Indianapolis Center
04:56PM 37.8975 -82.8878 305° West 395 455 34,000  Level Indianapolis Center
04:57PM 37.9578 -83.0003 304° West 392 451 34,000  Level Indianapolis Center
04:58PM 38.0172 -83.1117 304° West 383 441 34,000  Level Indianapolis Center
04:59PM 38.0769 -83.2242 304° West 385 443 34,000  Level Indianapolis Center
05:00PM 38.1331 -83.3658 297° West 399 459 34,000  Level Indianapolis Center
05:01PM 38.1383 -83.5131 273° West 418 481 34,000  Level Indianapolis Center
05:02PM 38.1419 -83.6603 272° West 418 481 34,000  Level Indianapolis Center
05:03PM 38.1467 -83.8078 272° West 419 482 34,000  Level Indianapolis Center
05:04PM 38.1739 -83.9453 284° West 409 471 34,000  Level Indianapolis Center
05:05PM 38.2589 -84.0225 325° Northwest 377 434 34,000  Level Indianapolis Center
05:06PM 38.3497 -84.0892 330° Northwest 374 430 34,000  Level Indianapolis Center
05:07PM 38.4575 -84.1658 331° Northwest 378 435 34,000  Level Indianapolis Center
05:09PM 38.5492 -84.2339 330° Northwest 381 438 34,000  Level Indianapolis Center
05:10PM 38.6428 -84.3006 331° Northwest 383 441 34,000  Level Indianapolis Center
05:11PM 38.7417 -84.3719 331° Northwest 380 437 34,000  Level Indianapolis Center
05:12PM 38.8297 -84.4464 327° Northwest 380 437 34,000 -120 Level Indianapolis Center
05:13PM 38.8933 -84.5422 310° West 395 455 33,800 -540 Descending Indianapolis Center
05:14PM 38.9756 -84.6586 312° West 394 453 33,000 -900 Descending Indianapolis Center
05:15PM 39.0469 -84.7608 312° West 386 444 32,000 -1,080 Descending Indianapolis Center
05:16PM 39.1183 -84.8619 312° West 383 441 30,900 -1,140 Descending Indianapolis Center
05:17PM 39.2142 -84.9344 330° Northwest 377 434 29,700 -1,140 Descending Indianapolis Center
05:18PM 39.3042 -84.9861 336° Northwest 361 415 28,600 -840 Descending Indianapolis Center
05:19PM 39.3936 -85.0378 336° Northwest 355 409 28,000 -300 Descending Indianapolis Center
05:20PM 39.4828 -85.0883 336° Northwest 352 405 28,000  Level Indianapolis Center
05:21PM 39.5953 -85.1539 336° Northwest 366 421 28,000  Level Indianapolis Center
05:22PM 39.6939 -85.2103 336° Northwest 384 442 28,000  Level Indianapolis Center
05:23PM 39.7950 -85.2689 336° Northwest 395 455 28,000  Level Indianapolis Center
05:24PM 39.8953 -85.3275 336° Northwest 398 458 28,000 -240 Level Indianapolis Center
05:25PM 39.9950 -85.3850 336° Northwest 396 456 27,600 -780 Descending Indianapolis Center
05:26PM 40.1139 -85.4547 336° Northwest 394 453 26,400 -1,080 Descending Indianapolis Center
05:27PM 40.2114 -85.5119 336° Northwest 389 448 25,400 -1,020 Descending Indianapolis Center
05:28PM 40.3094 -85.5681 336° Northwest 388 447 24,400 -720 Descending Indianapolis Center
05:29PM 40.4103 -85.6133 341° North 387 445 24,000 -360 Descending Indianapolis Center
05:30PM 40.4933 -85.6508 341° North 394 453 23,800 -600 Descending Chicago Center
05:31PM 40.5914 -85.7183 332° Northwest 402 463 23,000 -420 Descending Chicago Center
05:32PM 40.6786 -85.8119 321° Northwest 406 467 23,000 -300 Level Chicago Center
05:33PM 40.7658 -85.9117 319° Northwest 410 472 22,400 -780 Descending Chicago Center
05:34PM 40.8522 -86.0083 320° Northwest 407 468 21,400 -960 Descending Chicago Center
05:35PM 40.9361 -86.1011 320° Northwest 397 457 20,500 -960 Descending Chicago Center
05:36PM 41.0192 -86.1950 320° Northwest 393 452 19,500 -1,080 Descending Chicago Center
05:37PM 41.1175 -86.3067 319° Northwest 388 447 18,300 -1,140 Descending Chicago Center
05:38PM 41.1997 -86.3997 320° Northwest 389 448 17,200 -1,320 Descending Chicago Center
05:40PM 41.3594 -86.5808 320° Northwest 376 433 14,300 -1,440 Descending Chicago Center
05:41PM 41.4361 -86.6678 320° Northwest 366 421 12,800 -1,140 Descending Chicago Center
05:42PM 41.5239 -86.7656 320° Northwest 352 405 12,000 -420 Descending Chicago Center
05:43PM 41.6178 -86.7906 349° North 352 405 12,000  Level Chicago Center
05:44PM 41.7133 -86.8006 356° North 351 404 12,000 -420 Level Chicago Center
05:45PM 41.7947 -86.8122 354° North 317 365 11,200 -540 Descending Chicago Center
05:46PM 41.8694 -86.8331 348° North 285 328 11,000 -480 Descending Chicago Center
05:47PM 41.9156 -86.9431 299° West 283 326 10,300 -540 Descending Chicago Center
05:48PM 41.9492 -87.0350 296° West 279 321 10,000 -240 Descending Chicago Center
05:49PM 41.9786 -87.1303 293° West 277 319 9,900 -540 Descending Chicago Center
05:50PM 41.9833 -87.2325 274° West 278 320 9,000 -1,020 Descending Chicago Center
05:51PM 41.9831 -87.3322 270° West 272 313 7,800 -1,020 Descending Chicago Center
05:53PM 41.9833 -87.4511 270° West 268 308 7,000 -960 Descending Chicago Center
05:54PM 41.9831 -87.5472 270° West 261 300 5,900 -1,260 Descending Chicago Center
05:55PM 41.9839 -87.6350 271° West 248 285 4,400 -1,440 Descending Chicago Center
05:55PM 41.9833 -87.6833 269° West 218 251 3,500 -1,200 Descending Chicago TRACON
05:56PM 41.9833 -87.7667 270° West 193 222 2,500 -960 Descending Chicago TRACON
05:57PM 41.9833 -87.8167 270° West 146 168 1,600 -840 Descending Chicago TRACON
05:58PM 41.9833 -87.8667 270° West 128 147 900 -720 Descending Chicago TRACON